createdAt,value
2018-12-20T00:01:53.825Z,9.10
2018-12-20T00:05:01.559Z,9.10
2018-12-20T00:08:02.130Z,9.10
2018-12-20T00:11:02.277Z,9.10
2018-12-20T00:14:02.344Z,9.10
2018-12-20T00:17:08.182Z,9.00
2018-12-20T00:20:07.538Z,9.10
2018-12-20T00:23:07.924Z,9.10
2018-12-20T00:26:08.285Z,9.00
2018-12-20T00:29:08.490Z,9.00
2018-12-20T00:32:12.181Z,9.00
2018-12-20T00:35:11.697Z,9.10
2018-12-20T00:38:14.929Z,9.00
2018-12-20T00:41:14.069Z,9.00
2018-12-20T00:44:14.252Z,9.00
2018-12-20T00:51:02.902Z,9.00
2018-12-20T00:54:07.079Z,9.00
2018-12-20T00:57:06.385Z,9.00
2018-12-20T01:00:08.768Z,9.00
2018-12-20T01:03:08.123Z,9.00
2018-12-20T01:06:10.609Z,9.00
2018-12-20T01:09:10.594Z,9.00
2018-12-20T01:12:21.190Z,9.00
2018-12-20T01:15:21.871Z,9.00
2018-12-20T01:18:22.028Z,9.00
2018-12-20T01:21:27.324Z,9.00
2018-12-20T01:24:26.837Z,9.00
2018-12-20T01:27:31.111Z,9.00
2018-12-20T01:30:30.331Z,9.00
2018-12-20T01:33:30.322Z,9.00
2018-12-20T01:36:41.441Z,9.00
2018-12-20T01:39:43.038Z,9.00
2018-12-20T01:42:43.353Z,9.00
2018-12-20T01:45:43.700Z,9.00
2018-12-20T01:48:43.023Z,8.90
2018-12-20T01:51:46.871Z,8.90
2018-12-20T01:54:47.025Z,8.90
2018-12-20T01:57:52.794Z,8.90
2018-12-20T02:00:53.406Z,8.90
2018-12-20T02:03:52.603Z,8.90
2018-12-20T02:06:52.686Z,8.90
2018-12-20T02:09:53.127Z,8.90
2018-12-20T02:12:53.168Z,8.90
2018-12-20T02:15:56.183Z,8.90
2018-12-20T02:18:55.435Z,8.90
2018-12-20T02:21:55.598Z,8.90
2018-12-20T02:25:11.567Z,8.90
2018-12-20T02:28:13.951Z,9.00
2018-12-20T02:31:14.523Z,8.90
2018-12-20T02:34:14.111Z,8.90
2018-12-20T02:37:13.801Z,9.00
2018-12-20T02:40:15.274Z,9.00
2018-12-20T02:43:15.826Z,8.90
2018-12-20T02:46:15.935Z,9.00
2018-12-20T02:49:16.655Z,9.00
2018-12-20T02:52:16.038Z,9.00
2018-12-20T02:55:15.997Z,9.00
2018-12-20T02:58:15.787Z,9.00
2018-12-20T03:01:15.885Z,9.00
2018-12-20T03:04:15.765Z,9.00
2018-12-20T03:07:16.045Z,9.00
2018-12-20T03:10:16.250Z,9.00
2018-12-20T03:13:16.596Z,9.00
2018-12-20T03:16:17.820Z,9.00
2018-12-20T03:19:17.276Z,9.00
2018-12-20T03:22:20.873Z,9.00
2018-12-20T03:32:14.788Z,9.00
2018-12-20T03:35:14.091Z,9.00
2018-12-20T03:38:18.574Z,9.00
2018-12-20T03:41:17.942Z,9.00
2018-12-20T03:44:18.090Z,9.00
2018-12-20T03:47:17.679Z,9.00
2018-12-20T03:50:19.075Z,9.00
2018-12-20T03:53:18.726Z,9.00
2018-12-20T03:56:19.098Z,9.00
2018-12-20T03:59:18.853Z,9.00
2018-12-20T04:02:19.970Z,9.00
2018-12-20T04:05:19.593Z,9.00
2018-12-20T04:08:20.209Z,9.00
2018-12-20T04:11:19.825Z,9.00
2018-12-20T04:14:19.621Z,9.00
2018-12-20T04:17:23.292Z,9.00
2018-12-20T04:20:22.803Z,9.00
2018-12-20T04:23:22.555Z,9.00
2018-12-20T04:26:22.367Z,9.00
2018-12-20T04:29:25.110Z,9.00
2018-12-20T04:32:25.241Z,9.00
2018-12-20T04:35:24.481Z,9.00
2018-12-20T04:38:24.450Z,9.00
2018-12-20T04:41:24.280Z,9.00
2018-12-20T04:44:23.525Z,9.00
2018-12-20T04:47:23.812Z,9.00
2018-12-20T04:50:23.165Z,9.00
2018-12-20T04:53:23.138Z,9.00
2018-12-20T04:56:22.768Z,9.00
2018-12-20T04:59:23.218Z,9.00
2018-12-20T05:02:23.364Z,9.00
2018-12-20T05:05:24.159Z,9.00
2018-12-20T05:08:23.728Z,9.00
2018-12-20T05:11:24.089Z,8.90
2018-12-20T05:14:23.503Z,9.00
2018-12-20T05:17:24.907Z,9.00
2018-12-20T05:20:25.595Z,9.00
2018-12-20T05:23:25.785Z,9.00
2018-12-20T05:26:25.746Z,9.00
2018-12-20T05:29:25.105Z,8.90
2018-12-20T05:32:26.833Z,9.00
2018-12-20T05:35:26.194Z,9.00
2018-12-20T05:38:25.616Z,9.00
2018-12-20T05:41:26.692Z,9.00
2018-12-20T05:44:26.977Z,9.00
2018-12-20T05:47:27.440Z,9.00
2018-12-20T05:50:27.083Z,9.00
2018-12-20T05:53:27.266Z,9.00
2018-12-20T05:56:27.778Z,9.00
2018-12-20T05:59:28.015Z,9.00
2018-12-20T06:02:27.701Z,9.00
2018-12-20T06:05:27.334Z,9.00
2018-12-20T06:08:28.102Z,9.00
2018-12-20T06:11:28.123Z,9.00
2018-12-20T06:14:29.361Z,9.00
2018-12-20T06:17:28.609Z,9.00
2018-12-20T06:20:30.367Z,9.00
2018-12-20T06:23:30.621Z,9.00
2018-12-20T06:26:29.945Z,9.00
2018-12-20T06:29:29.124Z,9.00
2018-12-20T06:32:29.294Z,9.00
2018-12-20T06:35:28.922Z,9.00
2018-12-20T06:38:30.033Z,9.00
2018-12-20T06:41:29.825Z,9.00
2018-12-20T06:44:29.738Z,9.00
2018-12-20T06:47:29.311Z,9.00
2018-12-20T06:50:28.748Z,9.00
2018-12-20T06:53:28.334Z,9.00
2018-12-20T06:56:30.546Z,9.00
2018-12-20T06:59:31.845Z,8.90
2018-12-20T07:02:32.254Z,9.00
2018-12-20T07:05:31.637Z,9.00
2018-12-20T07:08:34.481Z,9.00
2018-12-20T07:11:34.559Z,9.00
2018-12-20T07:14:34.670Z,9.00
2018-12-20T07:17:34.466Z,9.00
2018-12-20T07:20:36.651Z,8.90
2018-12-20T07:23:36.323Z,9.00
2018-12-20T07:26:38.718Z,8.90
2018-12-20T07:29:37.953Z,8.90
2018-12-20T07:32:45.014Z,8.90
2018-12-20T07:35:44.227Z,9.00
2018-12-20T07:38:51.999Z,9.00
2018-12-20T07:41:51.168Z,9.00
2018-12-20T07:44:54.101Z,9.00
2018-12-20T07:47:53.318Z,9.00
2018-12-20T07:50:52.553Z,9.00
2018-12-20T07:53:52.558Z,9.00
2018-12-20T07:56:56.526Z,9.00
2018-12-20T08:20:58.075Z,9.10
2018-12-20T08:24:00.569Z,9.20
2018-12-20T08:26:59.983Z,9.20
2018-12-20T08:29:59.321Z,9.20
2018-12-20T08:32:58.569Z,9.20
2018-12-20T08:36:02.282Z,9.30
2018-12-20T08:39:04.645Z,9.30
2018-12-20T08:42:05.263Z,9.40
2018-12-20T08:45:04.794Z,9.40
2018-12-20T08:48:10.747Z,9.40
2018-12-20T08:51:10.166Z,9.50
2018-12-20T08:54:14.881Z,9.50
2018-12-20T08:57:14.047Z,9.50
2018-12-20T09:00:16.975Z,9.60
2018-12-20T09:03:16.758Z,9.60
2018-12-20T09:06:19.497Z,9.60
2018-12-20T09:09:18.694Z,9.70
2018-12-20T09:12:18.053Z,9.70
2018-12-20T09:15:17.240Z,9.70
2018-12-20T09:18:19.363Z,9.70
2018-12-20T09:21:19.185Z,9.70
2018-12-20T09:24:18.987Z,9.70
2018-12-20T09:27:19.419Z,9.80
2018-12-20T09:30:19.376Z,9.80
2018-12-20T09:33:23.178Z,9.80
2018-12-20T09:36:22.492Z,9.80
2018-12-20T09:39:22.966Z,9.80
2018-12-20T09:42:22.355Z,9.90
2018-12-20T09:45:25.757Z,9.90
2018-12-20T09:48:24.943Z,9.90
2018-12-20T09:51:24.396Z,9.90
2018-12-20T09:54:24.504Z,9.90
2018-12-20T09:57:33.328Z,9.90
2018-12-20T10:00:32.807Z,9.90
2018-12-20T10:03:32.016Z,10.00
2018-12-20T10:06:31.782Z,10.00
2018-12-20T10:09:31.959Z,10.00
2018-12-20T10:12:38.408Z,10.00
2018-12-20T10:15:37.924Z,10.10
2018-12-20T10:18:38.318Z,10.10
2018-12-20T10:21:37.766Z,10.10
2018-12-20T10:24:38.209Z,10.10
2018-12-20T10:27:37.698Z,10.10
2018-12-20T10:30:37.274Z,10.20
2018-12-20T10:33:36.747Z,10.20
2018-12-20T10:36:37.304Z,10.20
2018-12-20T10:39:36.517Z,10.20
2018-12-20T10:42:37.059Z,10.20
2018-12-20T10:45:36.768Z,10.30
2018-12-20T10:48:39.737Z,10.30
2018-12-20T10:51:39.203Z,10.30
2018-12-20T10:54:38.671Z,10.30
2018-12-20T10:57:37.926Z,10.30
2018-12-20T11:00:44.659Z,10.30
2018-12-20T11:03:46.420Z,10.30
2018-12-20T11:06:50.798Z,10.30
2018-12-20T11:09:55.485Z,10.30
2018-12-20T11:12:54.941Z,10.30
2018-12-20T11:15:55.941Z,10.30
2018-12-20T11:18:55.971Z,10.30
2018-12-20T11:25:42.477Z,10.40
2018-12-20T11:28:42.920Z,10.40
2018-12-20T11:31:43.451Z,10.40
2018-12-20T11:34:43.807Z,10.50
2018-12-20T11:37:43.205Z,10.50
2018-12-20T11:40:42.766Z,10.50
2018-12-20T11:43:42.369Z,10.60
2018-12-20T11:46:42.613Z,10.60
2018-12-20T11:49:43.997Z,10.60
2018-12-20T11:52:43.534Z,10.60
2018-12-20T11:55:44.207Z,10.60
2018-12-20T11:58:44.584Z,10.70
2018-12-20T12:01:44.876Z,10.70
2018-12-20T12:04:45.242Z,10.70
2018-12-20T12:07:45.627Z,10.70
2018-12-20T12:10:45.942Z,10.70
2018-12-20T12:13:46.410Z,10.80
2018-12-20T12:16:46.256Z,10.80
2018-12-20T12:19:46.296Z,10.80
2018-12-20T12:22:46.104Z,10.80
2018-12-20T12:25:47.186Z,10.80
2018-12-20T12:28:47.460Z,10.80
2018-12-20T12:31:47.140Z,10.80
2018-12-20T12:34:47.534Z,10.90
2018-12-20T12:37:47.038Z,10.90
2018-12-20T12:40:46.800Z,11.00
2018-12-20T12:43:50.999Z,11.00
2018-12-20T12:46:48.387Z,11.10
2018-12-20T12:49:50.646Z,11.10
2018-12-20T12:52:49.882Z,11.30
2018-12-20T12:55:49.565Z,11.50
2018-12-20T12:58:49.793Z,11.60
2018-12-20T13:01:49.443Z,11.70
2018-12-20T13:04:50.855Z,11.80
2018-12-20T13:07:50.402Z,11.90
2018-12-20T13:10:51.051Z,11.90
2018-12-20T13:13:50.588Z,11.90
2018-12-20T13:16:51.279Z,11.90
2018-12-20T13:19:51.458Z,12.00
2018-12-20T13:22:51.896Z,12.00
2018-12-20T13:25:52.188Z,12.00
2018-12-20T13:28:52.992Z,12.00
2018-12-20T13:31:53.076Z,12.00
2018-12-20T13:34:53.023Z,12.00
2018-12-20T13:37:54.732Z,12.00
2018-12-20T13:40:54.079Z,12.00
2018-12-20T13:43:54.516Z,12.00
2018-12-20T13:46:53.873Z,12.00
2018-12-20T13:49:55.243Z,12.00
2018-12-20T13:52:54.488Z,12.00
2018-12-20T13:55:54.722Z,12.00
2018-12-20T13:59:03.204Z,12.10
2018-12-20T14:01:56.304Z,12.10
2018-12-20T14:04:57.251Z,12.10
2018-12-20T14:07:58.896Z,12.10
2018-12-20T14:10:58.789Z,12.10
2018-12-20T14:14:07.634Z,12.10
2018-12-20T14:17:07.067Z,12.00
2018-12-20T14:20:07.621Z,12.10
2018-12-20T14:23:06.958Z,12.10
2018-12-20T14:26:11.001Z,12.10
2018-12-20T14:32:55.181Z,12.10
2018-12-20T14:36:00.324Z,12.10
2018-12-20T14:38:59.889Z,12.20
2018-12-20T14:42:01.256Z,12.20
2018-12-20T14:45:00.614Z,12.20
2018-12-20T14:47:59.831Z,12.20
2018-12-20T14:50:59.759Z,12.20
2018-12-20T14:53:59.031Z,12.20
2018-12-20T14:56:58.255Z,12.20
2018-12-20T14:59:57.967Z,12.20
2018-12-20T15:02:57.645Z,12.20
2018-12-20T15:05:59.024Z,12.20
2018-12-20T15:08:58.678Z,12.30
2018-12-20T15:11:59.428Z,12.30
2018-12-20T15:14:58.920Z,12.30
2018-12-20T15:17:59.594Z,12.30
2018-12-20T15:21:00.369Z,12.30
2018-12-20T15:24:01.610Z,12.20
2018-12-20T15:27:01.002Z,12.30
2018-12-20T15:30:00.356Z,12.20
2018-12-20T15:33:01.810Z,12.30
2018-12-20T15:36:03.294Z,12.20
2018-12-20T15:39:02.781Z,12.20
2018-12-20T15:42:03.723Z,12.10
2018-12-20T15:45:04.663Z,11.90
2018-12-20T15:48:05.795Z,11.10
2018-12-20T15:51:07.379Z,10.90
2018-12-20T15:54:07.783Z,10.70
2018-12-20T15:57:07.982Z,10.60
2018-12-20T16:00:09.811Z,10.40
2018-12-20T16:03:10.219Z,10.40
2018-12-20T16:06:15.365Z,10.30
2018-12-20T16:09:18.538Z,10.20
2018-12-20T16:12:18.645Z,10.10
2018-12-20T16:15:23.758Z,10.00
2018-12-20T16:18:23.019Z,10.00
2018-12-20T16:21:23.339Z,9.80
2018-12-20T16:24:22.736Z,9.80
2018-12-20T16:27:27.055Z,9.60
2018-12-20T16:30:26.653Z,9.60
2018-12-20T16:33:26.132Z,9.50
2018-12-20T16:36:26.062Z,9.50
2018-12-20T16:39:25.955Z,9.40
2018-12-20T16:42:25.357Z,9.40
2018-12-20T16:45:30.996Z,9.30
2018-12-20T16:48:30.248Z,9.30
2018-12-20T16:51:31.578Z,9.20
2018-12-20T16:54:30.950Z,9.20
2018-12-20T16:57:32.607Z,9.10
2018-12-20T17:00:32.079Z,9.10
2018-12-20T17:03:38.193Z,9.10
2018-12-20T17:06:39.568Z,9.00
2018-12-20T17:09:39.046Z,9.00
2018-12-20T17:12:39.128Z,8.90
2018-12-20T17:15:39.188Z,9.00
2018-12-20T17:18:39.473Z,8.90
2018-12-20T17:21:39.685Z,8.90
2018-12-20T17:24:39.154Z,8.90
2018-12-20T17:27:38.630Z,8.90
2018-12-20T17:30:39.987Z,8.80
2018-12-20T17:33:39.486Z,8.80
2018-12-20T17:36:46.289Z,8.80
2018-12-20T17:39:46.456Z,8.70
2018-12-20T17:42:45.817Z,8.70
2018-12-20T17:45:45.177Z,8.70
2018-12-20T17:48:45.305Z,8.70
2018-12-20T17:51:46.365Z,8.70
2018-12-20T17:54:46.257Z,8.70
2018-12-20T17:57:47.854Z,8.60
2018-12-20T18:00:47.160Z,8.50
2018-12-20T18:03:48.405Z,8.60
2018-12-20T18:06:48.532Z,8.60
2018-12-20T18:09:51.634Z,8.50
2018-12-20T18:12:52.520Z,8.50
2018-12-20T18:15:52.111Z,8.40
2018-12-20T18:18:53.501Z,8.40
2018-12-20T18:21:54.434Z,8.50
2018-12-20T18:24:54.377Z,8.40
2018-12-20T18:28:01.046Z,8.40
2018-12-20T18:31:00.425Z,8.30
2018-12-20T18:34:06.021Z,8.40
2018-12-20T18:37:05.370Z,8.30
2018-12-20T18:40:07.268Z,8.40
2018-12-20T18:43:06.824Z,8.30
2018-12-20T18:46:06.270Z,8.30
2018-12-20T18:49:08.096Z,8.40
2018-12-20T18:52:07.343Z,8.30
2018-12-20T18:55:07.978Z,8.40
2018-12-20T18:58:07.409Z,8.30
2018-12-20T19:01:06.665Z,8.30
2018-12-20T19:04:06.205Z,8.40
2018-12-20T19:07:07.214Z,8.40
2018-12-20T19:10:13.912Z,8.40
2018-12-20T19:13:14.527Z,8.30
2018-12-20T19:16:13.780Z,8.40
2018-12-20T19:19:14.214Z,8.30
2018-12-20T19:22:14.935Z,8.40
2018-12-20T19:25:15.329Z,8.40
2018-12-20T19:28:15.420Z,8.20
2018-12-20T19:31:15.937Z,8.40
2018-12-20T19:34:16.321Z,8.40
2018-12-20T19:37:17.992Z,8.40
2018-12-20T19:40:17.239Z,8.40
2018-12-20T19:50:13.992Z,8.30
2018-12-20T19:53:13.727Z,8.30
2018-12-20T19:56:13.275Z,8.30
2018-12-20T19:59:13.568Z,8.30
2018-12-20T20:02:16.014Z,8.30
2018-12-20T20:05:16.383Z,8.20
2018-12-20T20:08:17.017Z,8.20
2018-12-20T20:11:18.480Z,8.10
2018-12-20T20:14:18.641Z,8.10
2018-12-20T20:17:18.716Z,8.10
2018-12-20T20:20:18.550Z,8.00
2018-12-20T20:23:18.502Z,8.00
2018-12-20T20:26:18.337Z,8.10
2018-12-20T20:29:19.774Z,8.10
2018-12-20T20:32:20.990Z,8.10
2018-12-20T20:35:20.559Z,8.10
2018-12-20T20:38:21.102Z,8.10
2018-12-20T20:41:21.168Z,8.10
2018-12-20T20:48:09.315Z,8.10
2018-12-20T20:51:15.504Z,8.10
2018-12-20T20:54:15.466Z,8.20
2018-12-20T20:57:17.245Z,8.10
2018-12-20T21:00:21.681Z,8.20
2018-12-20T21:03:21.937Z,8.20
2018-12-20T21:06:22.512Z,8.20
2018-12-20T21:09:23.140Z,8.20
2018-12-20T21:12:23.334Z,8.20
2018-12-20T21:15:24.390Z,8.30
2018-12-20T21:18:24.475Z,8.20
2018-12-20T21:21:25.506Z,8.20
2018-12-20T21:24:27.048Z,8.20
2018-12-20T21:27:29.317Z,8.20
2018-12-20T21:30:30.744Z,8.30
2018-12-20T21:33:30.891Z,8.30
2018-12-20T21:36:34.975Z,8.30
2018-12-20T21:39:41.178Z,8.30
2018-12-20T21:42:40.395Z,8.30
2018-12-20T21:45:43.400Z,8.30
2018-12-20T21:48:43.720Z,8.30
2018-12-20T21:51:43.683Z,8.30
2018-12-20T21:54:42.968Z,8.30
2018-12-20T22:01:28.754Z,8.30
2018-12-20T22:04:28.208Z,8.40
2018-12-20T22:07:30.625Z,8.40
2018-12-20T22:10:30.138Z,8.40
2018-12-20T22:13:30.701Z,8.40
2018-12-20T22:16:30.020Z,8.40
2018-12-20T22:19:29.880Z,8.50
2018-12-20T22:22:29.954Z,8.40
2018-12-20T22:25:29.241Z,8.50
2018-12-20T22:28:28.795Z,8.50
2018-12-20T22:31:29.214Z,8.50
2018-12-20T22:34:30.241Z,8.50
2018-12-20T22:37:30.537Z,8.50
2018-12-20T22:40:30.502Z,8.50
2018-12-20T22:43:30.423Z,8.50
2018-12-20T22:46:30.221Z,8.50
2018-12-20T22:49:30.630Z,8.50
2018-12-20T22:52:30.101Z,8.50
2018-12-20T22:55:29.660Z,8.50
2018-12-20T22:58:29.119Z,8.50
2018-12-20T23:01:29.683Z,8.50
2018-12-20T23:04:29.198Z,8.50
2018-12-20T23:07:34.723Z,8.50
2018-12-20T23:10:34.913Z,8.50
2018-12-20T23:13:34.242Z,8.50
2018-12-20T23:16:33.687Z,8.60
2018-12-20T23:19:32.861Z,8.50
2018-12-20T23:22:32.765Z,8.50
2018-12-20T23:25:33.022Z,8.60
2018-12-20T23:28:35.149Z,8.60
2018-12-20T23:31:34.835Z,8.60
2018-12-20T23:34:34.073Z,8.60
2018-12-20T23:37:38.413Z,8.60
2018-12-20T23:40:42.048Z,8.60
2018-12-20T23:43:41.438Z,8.60
2018-12-20T23:46:40.984Z,8.60
2018-12-20T23:49:40.186Z,8.60
2018-12-20T23:52:41.990Z,8.60
2018-12-20T23:55:42.216Z,8.60
2018-12-20T23:58:41.460Z,8.60
